createdAt,value
2018-11-29T19:26:13.503Z,22.00
2018-11-29T19:28:42.021Z,22.00
2018-11-29T19:31:10.387Z,22.00
2018-11-29T19:33:39.527Z,22.00
2018-11-29T19:36:08.041Z,22.00
2018-11-29T19:38:36.474Z,22.00
2018-11-29T19:41:04.885Z,21.90
2018-11-29T19:43:33.336Z,21.90
2018-11-29T19:46:01.735Z,21.90
2018-11-29T19:48:30.119Z,21.80
2018-11-29T19:50:58.518Z,21.80
2018-11-29T19:53:27.255Z,21.80
2018-11-29T19:55:58.989Z,21.70
2018-11-29T19:58:27.761Z,21.70
2018-11-29T20:00:56.173Z,21.70
2018-11-29T20:03:24.605Z,21.70
2018-11-29T20:05:53.039Z,21.70
2018-11-29T20:08:21.425Z,21.70
2018-11-29T20:10:49.892Z,21.70
2018-11-29T20:13:18.942Z,21.70
2018-11-29T20:15:49.275Z,21.60
2018-11-29T20:18:17.653Z,21.60
2018-11-29T20:20:46.036Z,21.60
2018-11-29T20:23:14.494Z,21.60
2018-11-29T20:25:44.346Z,21.60
2018-11-29T20:28:13.508Z,21.60
2018-11-29T20:30:42.097Z,21.50
2018-11-29T20:33:10.467Z,21.60
2018-11-29T20:35:38.858Z,21.80
2018-11-29T20:38:07.554Z,21.90
2018-11-29T20:40:37.907Z,22.10
2018-11-29T20:43:06.750Z,22.30
2018-11-29T20:45:41.451Z,22.40
2018-11-29T20:48:12.589Z,22.60
2018-11-29T20:50:40.966Z,25.30
2018-11-29T20:53:10.139Z,24.70
2018-11-29T20:55:38.535Z,24.00
2018-11-29T20:58:08.426Z,23.70
2018-11-29T21:00:36.976Z,23.60
2018-11-29T21:03:06.250Z,23.50
2018-11-29T21:05:34.688Z,23.20
2018-11-29T21:08:03.711Z,23.10
2018-11-29T21:10:32.064Z,23.00
2018-11-29T21:13:05.652Z,22.90
2018-11-29T21:15:35.466Z,22.80
2018-11-29T21:18:03.900Z,22.80
2018-11-29T21:20:32.315Z,22.70
2018-11-29T21:23:01.164Z,22.70
2018-11-29T21:25:29.585Z,22.60
2018-11-29T21:27:58.044Z,22.60
2018-11-29T21:30:26.458Z,22.50
2018-11-29T21:32:54.794Z,22.50
2018-11-29T21:35:23.608Z,22.50
2018-11-29T21:37:53.079Z,22.50
2018-11-29T21:40:27.922Z,22.40
2018-11-29T21:42:56.253Z,22.40
2018-11-29T21:45:24.720Z,22.40
2018-11-29T21:47:53.119Z,22.30
2018-11-29T21:50:21.539Z,22.20
2018-11-29T21:52:49.931Z,22.10
2018-11-29T21:55:18.302Z,22.10
2018-11-29T21:57:46.660Z,21.90
2018-11-29T22:00:17.619Z,21.90
2018-11-29T22:02:51.346Z,21.80
2018-11-29T22:05:19.771Z,21.80
2018-11-29T22:07:48.184Z,21.80
2018-11-29T22:10:16.653Z,21.80
2018-11-29T22:12:45.065Z,21.90
2018-11-29T22:15:13.473Z,21.90
2018-11-29T22:18:18.101Z,21.90
2018-11-29T22:20:47.209Z,21.90
2018-11-29T22:23:15.625Z,22.00
2018-11-29T22:25:44.372Z,21.90
2018-11-29T22:28:12.807Z,21.90
2018-11-29T22:30:41.472Z,21.80
2018-11-29T22:33:09.651Z,21.70
2018-11-29T22:35:38.222Z,21.70
2018-11-29T22:38:07.507Z,21.70
2018-11-29T22:40:36.095Z,21.60
2018-11-29T22:43:04.592Z,21.60
2018-11-29T22:45:33.034Z,21.50
2018-11-29T22:48:01.390Z,21.50
2018-11-29T22:50:29.858Z,21.50
2018-11-29T22:52:58.284Z,21.40
2018-11-29T22:55:26.665Z,21.40
2018-11-29T22:57:55.064Z,21.30
2018-11-29T23:00:23.475Z,21.30
2018-11-29T23:02:51.930Z,21.30
2018-11-29T23:05:20.411Z,21.20
2018-11-29T23:07:48.858Z,21.20
2018-11-29T23:10:17.281Z,21.20
2018-11-29T23:12:45.809Z,21.20
2018-11-29T23:15:14.206Z,21.20
2018-11-29T23:17:43.261Z,21.20
2018-11-29T23:20:12.499Z,21.10
2018-11-29T23:22:41.403Z,21.10
2018-11-29T23:25:12.061Z,21.10
2018-11-29T23:27:40.386Z,21.10
2018-11-29T23:30:14.131Z,21.00
2018-11-29T23:32:43.197Z,21.00
2018-11-29T23:35:12.690Z,21.00
2018-11-29T23:37:41.069Z,21.00
2018-11-29T23:40:13.856Z,20.90
2018-11-29T23:42:42.238Z,20.90
2018-11-29T23:45:11.532Z,20.90
2018-11-29T23:47:39.963Z,20.90
2018-11-29T23:50:16.184Z,20.90
2018-11-29T23:52:44.751Z,20.80
2018-11-29T23:55:21.500Z,20.80
2018-11-29T23:57:50.022Z,20.80
